createdAt,value
2017-12-29T00:00:34.026Z,4.38
2017-12-29T00:01:14.602Z,4.48
2017-12-29T00:01:55.171Z,4.49
2017-12-29T00:02:35.744Z,4.44
2017-12-29T00:03:16.331Z,4.42
2017-12-29T00:03:56.885Z,4.44
2017-12-29T00:04:37.443Z,4.42
2017-12-29T00:05:17.998Z,4.45
2017-12-29T00:05:58.576Z,4.44
2017-12-29T00:06:39.155Z,4.44
2017-12-29T00:07:19.716Z,4.38
2017-12-29T00:08:00.304Z,4.45
2017-12-29T00:08:40.900Z,4.35
2017-12-29T00:09:21.456Z,4.38
2017-12-29T00:10:02.015Z,4.37
2017-12-29T00:10:42.576Z,4.44
2017-12-29T00:11:23.223Z,4.35
2017-12-29T00:12:03.858Z,4.32
2017-12-29T00:12:44.372Z,4.37
2017-12-29T00:13:24.928Z,4.28
2017-12-29T00:14:05.494Z,4.38
2017-12-29T00:14:46.055Z,4.37
2017-12-29T00:15:26.611Z,4.31
2017-12-29T00:16:07.172Z,4.26
2017-12-29T00:16:47.773Z,4.23
2017-12-29T00:17:28.349Z,4.22
2017-12-29T00:18:08.920Z,4.2
2017-12-29T00:18:49.479Z,4.22
2017-12-29T00:19:30.061Z,4.26
2017-12-29T00:20:10.633Z,4.23
2017-12-29T00:20:51.195Z,4.19
2017-12-29T00:21:31.763Z,4.2
2017-12-29T00:22:12.337Z,4.26
2017-12-29T00:22:52.922Z,4.23
2017-12-29T00:23:33.484Z,4.2
2017-12-29T00:24:14.054Z,4.17
2017-12-29T00:24:54.621Z,4.19
2017-12-29T00:25:36.870Z,4.2
2017-12-29T00:26:17.450Z,4.17
2017-12-29T00:26:58.010Z,4.17
2017-12-29T00:27:38.585Z,4.22
2017-12-29T00:28:19.152Z,4.17
2017-12-29T00:28:59.730Z,4.14
2017-12-29T00:29:40.299Z,4.17
2017-12-29T00:30:20.905Z,4.22
2017-12-29T00:31:01.473Z,4.2
2017-12-29T00:31:42.040Z,4.17
2017-12-29T00:32:22.606Z,4.08
2017-12-29T00:33:03.195Z,4.04
2017-12-29T00:33:43.758Z,4.1
2017-12-29T00:34:24.318Z,4.1
2017-12-29T00:35:04.872Z,4.13
2017-12-29T00:35:45.426Z,4.17
2017-12-29T00:36:25.994Z,4.13
2017-12-29T00:37:06.588Z,4.04
2017-12-29T00:37:47.174Z,4.04
2017-12-29T00:38:27.736Z,4.12
2017-12-29T00:39:08.297Z,4.13
2017-12-29T00:39:48.880Z,4.16
2017-12-29T00:40:29.445Z,4.06
2017-12-29T00:41:10.010Z,4.16
2017-12-29T00:41:50.575Z,4.14
2017-12-29T00:42:31.130Z,4.12
2017-12-29T00:43:11.674Z,3.99
2017-12-29T00:43:52.242Z,3.98
2017-12-29T00:44:32.796Z,4.08
2017-12-29T00:45:13.361Z,4.05
2017-12-29T00:45:53.917Z,3.99
2017-12-29T00:46:34.475Z,3.99
2017-12-29T00:47:15.034Z,4.06
2017-12-29T00:47:55.595Z,4.04
2017-12-29T00:48:36.155Z,4.1
2017-12-29T00:49:16.748Z,4.05
2017-12-29T00:49:57.339Z,4.01
2017-12-29T00:50:37.903Z,4.01
2017-12-29T00:51:18.461Z,4.01
2017-12-29T00:51:59.025Z,3.96
2017-12-29T00:52:39.596Z,3.87
2017-12-29T00:53:20.191Z,3.95
2017-12-29T00:54:00.778Z,3.88
2017-12-29T00:54:41.330Z,3.88
2017-12-29T00:55:21.898Z,4.01
2017-12-29T00:56:02.520Z,3.94
2017-12-29T00:56:43.081Z,3.95
2017-12-29T00:57:23.640Z,4.01
2017-12-29T00:58:04.208Z,3.99
2017-12-29T00:58:44.788Z,3.92
2017-12-29T00:59:25.386Z,4.01
2017-12-29T01:00:05.967Z,3.95
2017-12-29T01:00:46.558Z,4.01
2017-12-29T01:01:27.137Z,3.99
2017-12-29T01:02:07.718Z,3.96
2017-12-29T01:02:48.282Z,4.01
2017-12-29T01:03:28.847Z,4.01
2017-12-29T01:04:09.426Z,4.01
2017-12-29T01:04:50.068Z,3.99
2017-12-29T01:05:30.636Z,3.99
2017-12-29T01:06:11.202Z,3.92
2017-12-29T01:06:51.762Z,3.92
2017-12-29T01:07:32.328Z,3.96
2017-12-29T01:08:12.884Z,3.94
2017-12-29T01:08:53.479Z,3.99
2017-12-29T01:09:34.054Z,4.01
2017-12-29T01:10:14.645Z,3.96
2017-12-29T01:10:55.243Z,3.96
2017-12-29T01:11:35.804Z,4.01
2017-12-29T01:12:16.379Z,3.94
2017-12-29T01:12:56.948Z,3.87
2017-12-29T01:13:37.539Z,3.88
2017-12-29T01:14:18.137Z,3.94
2017-12-29T01:14:58.757Z,3.92
2017-12-29T01:15:39.313Z,3.99
2017-12-29T01:16:19.885Z,3.95
2017-12-29T01:17:00.458Z,3.95
2017-12-29T01:17:41.030Z,3.92
2017-12-29T01:18:21.593Z,3.96
2017-12-29T01:19:02.163Z,4.01
2017-12-29T01:19:42.743Z,3.96
2017-12-29T01:20:23.300Z,3.91
2017-12-29T01:21:03.890Z,3.92
2017-12-29T01:21:44.449Z,3.92
2017-12-29T01:22:25.012Z,3.95
2017-12-29T01:23:05.563Z,3.91
2017-12-29T01:23:46.127Z,4.01
2017-12-29T01:24:26.691Z,4.01
2017-12-29T01:25:07.250Z,3.99
2017-12-29T01:25:47.822Z,3.96
2017-12-29T01:26:28.387Z,3.95
2017-12-29T01:27:08.939Z,3.94
2017-12-29T01:27:49.510Z,3.94
2017-12-29T01:28:30.067Z,4.02
2017-12-29T01:29:10.643Z,4.04
2017-12-29T01:29:51.204Z,4.05
2017-12-29T01:30:31.778Z,3.98
2017-12-29T01:31:12.339Z,3.98
2017-12-29T01:31:52.913Z,3.96
2017-12-29T01:32:33.473Z,3.98
2017-12-29T01:33:14.057Z,4.02
2017-12-29T01:33:54.631Z,3.96
2017-12-29T01:34:35.233Z,4.04
2017-12-29T01:35:15.802Z,3.91
2017-12-29T01:35:56.364Z,3.91
2017-12-29T01:36:36.926Z,3.99
2017-12-29T01:37:17.492Z,3.88
2017-12-29T01:37:58.062Z,4.01
2017-12-29T01:38:38.636Z,3.94
2017-12-29T01:39:19.201Z,3.96
2017-12-29T01:39:59.761Z,3.91
2017-12-29T01:40:40.432Z,3.95
2017-12-29T01:41:20.988Z,3.91
2017-12-29T01:42:01.547Z,3.94
2017-12-29T01:42:42.137Z,3.8
2017-12-29T01:43:22.700Z,3.78
2017-12-29T01:44:03.254Z,3.94
2017-12-29T01:44:43.813Z,3.87
2017-12-29T01:45:24.378Z,3.88
2017-12-29T01:46:04.916Z,3.84
2017-12-29T01:46:45.475Z,3.88
2017-12-29T01:47:26.037Z,3.84
2017-12-29T01:48:09.898Z,3.94
2017-12-29T01:48:50.470Z,3.84
2017-12-29T01:49:31.024Z,3.86
2017-12-29T01:50:11.577Z,3.84
2017-12-29T01:50:52.134Z,3.91
2017-12-29T01:51:32.690Z,3.87
2017-12-29T01:52:13.271Z,3.88
2017-12-29T01:52:53.826Z,3.86
2017-12-29T01:53:34.393Z,3.86
2017-12-29T01:54:14.959Z,3.83
2017-12-29T01:54:55.554Z,3.84
2017-12-29T01:55:36.158Z,3.78
2017-12-29T01:56:16.716Z,3.8
2017-12-29T01:56:57.295Z,3.86
2017-12-29T01:57:37.845Z,3.86
2017-12-29T01:58:18.411Z,3.88
2017-12-29T01:58:58.986Z,3.84
2017-12-29T01:59:39.549Z,3.86
2017-12-29T02:00:20.124Z,3.84
2017-12-29T02:01:00.688Z,3.91
2017-12-29T02:01:41.254Z,3.96
2017-12-29T02:02:21.807Z,3.94
2017-12-29T02:03:02.382Z,3.83
2017-12-29T02:03:42.948Z,3.88
2017-12-29T02:04:23.501Z,3.84
2017-12-29T02:05:04.095Z,3.94
2017-12-29T02:05:44.698Z,3.96
2017-12-29T02:06:25.230Z,3.87
2017-12-29T02:07:05.796Z,3.88
2017-12-29T02:07:46.376Z,3.95
2017-12-29T02:08:26.947Z,3.87
2017-12-29T02:09:07.513Z,3.87
2017-12-29T02:09:48.070Z,3.91
2017-12-29T02:10:28.638Z,3.86
2017-12-29T02:11:09.196Z,3.88
2017-12-29T02:11:49.760Z,3.81
2017-12-29T02:12:30.330Z,3.86
2017-12-29T02:13:10.910Z,3.86
2017-12-29T02:13:51.473Z,3.87
2017-12-29T02:14:32.091Z,3.81
2017-12-29T02:15:12.685Z,3.87
2017-12-29T02:15:53.257Z,3.92
2017-12-29T02:16:33.838Z,3.86
2017-12-29T02:17:14.394Z,3.88
2017-12-29T02:17:54.957Z,3.88
2017-12-29T02:18:35.534Z,3.92
2017-12-29T02:19:16.086Z,3.87
2017-12-29T02:19:56.667Z,3.84
2017-12-29T02:20:37.250Z,3.86
2017-12-29T02:21:17.842Z,3.91
2017-12-29T02:21:58.418Z,3.88
2017-12-29T02:22:39.003Z,3.87
2017-12-29T02:23:19.592Z,3.84
2017-12-29T02:24:00.165Z,3.86
2017-12-29T02:24:40.729Z,3.81
2017-12-29T02:25:21.290Z,3.8
2017-12-29T02:26:01.862Z,3.88
2017-12-29T02:26:42.508Z,3.84
2017-12-29T02:27:23.090Z,3.87
2017-12-29T02:28:03.668Z,3.87
2017-12-29T02:28:44.308Z,3.83
2017-12-29T02:29:24.845Z,3.96
2017-12-29T02:30:05.428Z,3.88
2017-12-29T02:30:45.998Z,3.87
2017-12-29T02:31:26.553Z,3.84
2017-12-29T02:32:07.129Z,3.84
2017-12-29T02:32:47.720Z,3.87
2017-12-29T02:33:28.283Z,3.95
2017-12-29T02:34:08.868Z,3.92
2017-12-29T02:34:49.426Z,3.84
2017-12-29T02:35:29.986Z,3.83
2017-12-29T02:36:10.553Z,3.87
2017-12-29T02:36:51.127Z,3.83
2017-12-29T02:37:31.684Z,3.87
2017-12-29T02:38:12.238Z,3.84
2017-12-29T02:38:52.787Z,3.91
2017-12-29T02:39:33.360Z,3.96
2017-12-29T02:40:13.952Z,3.91
2017-12-29T02:40:54.508Z,3.94
2017-12-29T02:41:35.076Z,3.96
2017-12-29T02:42:15.654Z,3.96
2017-12-29T02:42:56.240Z,3.96
2017-12-29T02:43:36.811Z,4.01
2017-12-29T02:44:17.387Z,4.1
2017-12-29T02:44:57.943Z,3.98
2017-12-29T02:45:38.494Z,4.05
2017-12-29T02:46:19.052Z,4.05
2017-12-29T02:46:59.641Z,4.05
2017-12-29T02:47:40.203Z,4.01
2017-12-29T02:48:20.783Z,3.98
2017-12-29T02:49:01.367Z,4.04
2017-12-29T02:49:41.916Z,3.99
2017-12-29T02:50:22.476Z,3.96
2017-12-29T02:51:03.040Z,3.95
2017-12-29T02:51:43.588Z,3.92
2017-12-29T02:52:24.165Z,4.02
2017-12-29T02:53:04.734Z,3.94
2017-12-29T02:53:45.282Z,4.01
2017-12-29T02:54:25.850Z,3.95
2017-12-29T02:55:06.411Z,3.96
2017-12-29T02:55:46.970Z,3.88
2017-12-29T02:56:27.573Z,3.91
2017-12-29T02:57:08.156Z,3.94
2017-12-29T02:57:48.749Z,3.8
2017-12-29T02:58:29.371Z,3.88
2017-12-29T02:59:09.978Z,3.92
2017-12-29T02:59:50.578Z,3.96
2017-12-29T03:00:31.152Z,3.83
2017-12-29T03:01:11.771Z,3.88
2017-12-29T03:01:52.304Z,3.81
2017-12-29T03:02:32.858Z,3.86
2017-12-29T03:03:13.418Z,3.84
2017-12-29T03:03:53.977Z,3.88
2017-12-29T03:04:34.537Z,3.91
2017-12-29T03:05:15.095Z,3.92
2017-12-29T03:05:55.661Z,3.83
2017-12-29T03:06:36.231Z,3.86
2017-12-29T03:07:16.800Z,3.88
2017-12-29T03:07:57.357Z,3.87
2017-12-29T03:08:37.922Z,3.84
2017-12-29T03:09:18.481Z,3.81
2017-12-29T03:09:59.049Z,3.78
2017-12-29T03:10:39.614Z,3.78
2017-12-29T03:11:20.184Z,3.83
2017-12-29T03:12:00.754Z,3.78
2017-12-29T03:12:41.331Z,3.78
2017-12-29T03:13:21.912Z,3.77
2017-12-29T03:14:02.509Z,3.77
2017-12-29T03:14:43.075Z,3.8
2017-12-29T03:15:23.632Z,3.81
2017-12-29T03:16:04.191Z,3.74
2017-12-29T03:16:44.753Z,3.73
2017-12-29T03:17:25.320Z,3.78
2017-12-29T03:18:05.896Z,3.76
2017-12-29T03:18:46.501Z,3.78
2017-12-29T03:19:27.067Z,3.83
2017-12-29T03:20:07.626Z,3.8
2017-12-29T03:20:48.184Z,3.8
2017-12-29T03:21:28.759Z,3.74
2017-12-29T03:22:09.321Z,3.81
2017-12-29T03:22:49.879Z,3.8
2017-12-29T03:23:30.443Z,3.76
2017-12-29T03:24:11.018Z,3.73
2017-12-29T03:24:51.587Z,3.76
2017-12-29T03:25:32.150Z,3.7
2017-12-29T03:26:12.716Z,3.68
2017-12-29T03:26:53.284Z,3.69
2017-12-29T03:27:33.880Z,3.65
2017-12-29T03:28:14.438Z,3.66
2017-12-29T03:28:54.986Z,3.68
2017-12-29T03:29:35.565Z,3.68
2017-12-29T03:30:16.126Z,3.69
2017-12-29T03:30:56.687Z,3.65
2017-12-29T03:31:37.243Z,3.7
2017-12-29T03:32:17.805Z,3.69
2017-12-29T03:32:58.359Z,3.68
2017-12-29T03:33:38.921Z,3.66
2017-12-29T03:34:19.474Z,3.68
2017-12-29T03:35:00.050Z,3.69
2017-12-29T03:35:40.623Z,3.73
2017-12-29T03:36:21.185Z,3.69
2017-12-29T03:37:01.749Z,3.7
2017-12-29T03:37:42.349Z,3.68
2017-12-29T03:38:22.908Z,3.69
2017-12-29T03:39:03.469Z,3.66
2017-12-29T03:39:44.019Z,3.76
2017-12-29T03:40:24.605Z,3.78
2017-12-29T03:41:05.174Z,3.76
2017-12-29T03:41:45.742Z,3.73
2017-12-29T03:42:26.289Z,3.65
2017-12-29T03:43:06.844Z,3.68
2017-12-29T03:43:47.402Z,3.65
2017-12-29T03:44:27.956Z,3.65
2017-12-29T03:45:08.529Z,3.69
2017-12-29T03:45:49.146Z,3.68
2017-12-29T03:46:29.729Z,3.69
2017-12-29T03:47:10.301Z,3.68
2017-12-29T03:47:50.855Z,3.69
2017-12-29T03:48:31.425Z,3.63
2017-12-29T03:49:11.994Z,3.6
2017-12-29T03:49:52.552Z,3.62
2017-12-29T03:50:33.122Z,3.58
2017-12-29T03:51:13.674Z,3.63
2017-12-29T03:51:54.273Z,3.66
2017-12-29T03:52:34.837Z,3.6
2017-12-29T03:53:15.396Z,3.62
2017-12-29T03:53:55.952Z,3.55
2017-12-29T03:54:36.540Z,3.56
2017-12-29T03:55:17.139Z,3.62
2017-12-29T03:55:57.693Z,3.5
2017-12-29T03:56:38.292Z,3.56
2017-12-29T03:57:18.861Z,3.51
2017-12-29T03:57:59.416Z,3.53
2017-12-29T03:58:40.011Z,3.5
2017-12-29T03:59:20.590Z,3.53
2017-12-29T04:00:01.173Z,3.48
2017-12-29T04:00:42.460Z,3.56
2017-12-29T04:01:23.084Z,3.51
2017-12-29T04:02:03.645Z,3.55
2017-12-29T04:02:44.209Z,3.53
2017-12-29T04:03:24.773Z,3.51
2017-12-29T04:04:05.340Z,3.56
2017-12-29T04:04:45.947Z,3.51
2017-12-29T04:05:26.537Z,3.5
2017-12-29T04:06:07.110Z,3.5
2017-12-29T04:06:47.674Z,3.5
2017-12-29T04:07:28.240Z,3.44
2017-12-29T04:08:08.831Z,3.48
2017-12-29T04:08:49.384Z,3.34
2017-12-29T04:09:29.948Z,3.31
2017-12-29T04:10:10.519Z,3.42
2017-12-29T04:10:51.090Z,3.36
2017-12-29T04:11:31.650Z,3.4
2017-12-29T04:12:12.207Z,3.37
2017-12-29T04:12:52.757Z,3.36
2017-12-29T04:13:33.315Z,3.42
2017-12-29T04:14:13.880Z,3.42
2017-12-29T04:14:54.434Z,3.41
2017-12-29T04:15:34.989Z,3.31
2017-12-29T04:16:15.548Z,3.4
2017-12-29T04:16:56.148Z,3.36
2017-12-29T04:17:36.711Z,3.42
2017-12-29T04:18:17.309Z,3.34
2017-12-29T04:18:57.871Z,3.36
2017-12-29T04:19:38.429Z,3.28
2017-12-29T04:20:19.006Z,3.34
2017-12-29T04:20:59.572Z,3.4
2017-12-29T04:21:40.129Z,3.26
2017-12-29T04:22:20.689Z,3.4
2017-12-29T04:23:01.251Z,3.31
2017-12-29T04:23:41.815Z,3.31
2017-12-29T04:24:22.377Z,3.4
2017-12-29T04:25:02.968Z,3.32
2017-12-29T04:25:43.526Z,3.37
2017-12-29T04:26:24.075Z,3.37
2017-12-29T04:27:04.627Z,3.34
2017-12-29T04:27:45.183Z,3.31
2017-12-29T04:28:25.741Z,3.32
2017-12-29T04:29:06.303Z,3.29
2017-12-29T04:29:46.872Z,3.32
2017-12-29T04:30:27.445Z,3.34
2017-12-29T04:31:08.044Z,3.26
2017-12-29T04:31:48.630Z,3.36
2017-12-29T04:32:29.204Z,3.29
2017-12-29T04:33:09.758Z,3.29
2017-12-29T04:33:50.337Z,3.32
2017-12-29T04:34:30.899Z,3.37
2017-12-29T04:35:11.476Z,3.28
2017-12-29T04:35:52.049Z,3.25
2017-12-29T04:36:32.615Z,3.34
2017-12-29T04:37:13.165Z,3.31
2017-12-29T04:37:53.737Z,3.29
2017-12-29T04:38:34.304Z,3.28
2017-12-29T04:39:14.877Z,3.37
2017-12-29T04:39:55.456Z,3.23
2017-12-29T04:40:36.016Z,3.26
2017-12-29T04:41:16.580Z,3.25
2017-12-29T04:41:57.153Z,3.28
2017-12-29T04:42:37.755Z,3.23
2017-12-29T04:43:18.325Z,3.25
2017-12-29T04:43:58.905Z,3.22
2017-12-29T04:44:39.486Z,3.26
2017-12-29T04:45:20.078Z,3.22
2017-12-29T04:46:00.648Z,3.23
2017-12-29T04:46:41.199Z,3.25
2017-12-29T04:47:21.765Z,3.26
2017-12-29T04:48:02.338Z,3.21
2017-12-29T04:48:42.917Z,3.23
2017-12-29T04:49:23.482Z,3.23
2017-12-29T04:50:04.041Z,3.07
2017-12-29T04:50:45.453Z,3.14
2017-12-29T04:51:26.003Z,3.14
2017-12-29T04:52:06.587Z,3.18
2017-12-29T04:52:47.159Z,3.16
2017-12-29T04:53:27.727Z,3.14
2017-12-29T04:54:08.290Z,3.26
2017-12-29T04:54:48.850Z,3.21
2017-12-29T04:55:29.408Z,3.08
2017-12-29T04:56:09.996Z,3.21
2017-12-29T04:56:50.561Z,3.19
2017-12-29T04:57:31.138Z,3.07
2017-12-29T04:58:11.703Z,3.16
2017-12-29T04:58:52.264Z,3.22
2017-12-29T04:59:32.817Z,3.23
2017-12-29T05:00:13.402Z,3.19
2017-12-29T05:00:53.961Z,3.13
2017-12-29T05:01:34.523Z,3.11
2017-12-29T05:02:15.084Z,3.16
2017-12-29T05:02:55.664Z,3.1
2017-12-29T05:03:36.233Z,3.08
2017-12-29T05:04:16.836Z,3.08
2017-12-29T05:04:57.409Z,3.16
2017-12-29T05:05:37.975Z,3.07
2017-12-29T05:06:18.549Z,3.1
2017-12-29T05:06:59.123Z,3.08
2017-12-29T05:07:39.683Z,3.04
2017-12-29T05:08:20.252Z,3.07
2017-12-29T05:09:00.804Z,3.13
2017-12-29T05:09:41.366Z,3.07
2017-12-29T05:10:21.926Z,3.07
2017-12-29T05:11:02.493Z,3.07
2017-12-29T05:11:43.062Z,3.11
2017-12-29T05:12:23.619Z,3.04
2017-12-29T05:13:04.190Z,3.01
2017-12-29T05:13:44.756Z,3.01
2017-12-29T05:14:25.326Z,3.04
2017-12-29T05:15:05.919Z,3.05
2017-12-29T05:15:46.498Z,3.03
2017-12-29T05:16:27.091Z,2.97
2017-12-29T05:17:07.657Z,2.97
2017-12-29T05:17:48.218Z,3.03
2017-12-29T05:18:28.793Z,2.98
2017-12-29T05:19:09.379Z,2.98
2017-12-29T05:19:49.941Z,3.05
2017-12-29T05:20:30.506Z,3
2017-12-29T05:21:11.059Z,3.07
2017-12-29T05:21:51.629Z,3
2017-12-29T05:22:32.183Z,3.01
2017-12-29T05:23:12.735Z,3
2017-12-29T05:23:53.291Z,3.01
2017-12-29T05:24:33.859Z,2.97
2017-12-29T05:25:14.424Z,2.97
2017-12-29T05:25:55.033Z,3
2017-12-29T05:26:35.633Z,2.98
2017-12-29T05:27:16.193Z,2.89
2017-12-29T05:27:56.754Z,2.97
2017-12-29T05:28:37.322Z,3.01
2017-12-29T05:29:17.918Z,2.95
2017-12-29T05:29:58.475Z,2.95
2017-12-29T05:30:39.035Z,2.92
2017-12-29T05:31:19.603Z,3
2017-12-29T05:32:00.173Z,2.98
2017-12-29T05:32:40.731Z,2.97
2017-12-29T05:33:21.289Z,2.98
2017-12-29T05:34:01.849Z,2.97
2017-12-29T05:34:42.417Z,2.97
2017-12-29T05:35:22.969Z,2.98
2017-12-29T05:36:06.321Z,2.97
2017-12-29T05:36:46.877Z,2.87
2017-12-29T05:37:27.441Z,2.98
2017-12-29T05:38:08.011Z,2.93
2017-12-29T05:38:48.580Z,2.85
2017-12-29T05:39:29.148Z,2.89
2017-12-29T05:40:09.739Z,2.83
2017-12-29T05:40:50.341Z,2.86
2017-12-29T05:41:30.901Z,2.83
2017-12-29T05:42:11.465Z,2.87
2017-12-29T05:42:52.013Z,2.89
2017-12-29T05:43:32.573Z,2.89
2017-12-29T05:44:13.178Z,2.9
2017-12-29T05:44:53.738Z,2.87
2017-12-29T05:45:34.292Z,2.86
2017-12-29T05:46:14.907Z,2.86
2017-12-29T05:46:55.415Z,2.87
2017-12-29T05:47:36.017Z,2.85
2017-12-29T05:48:16.588Z,2.89
2017-12-29T05:48:57.095Z,2.87
2017-12-29T05:49:37.652Z,2.9
2017-12-29T05:50:18.211Z,2.85
2017-12-29T05:50:58.771Z,2.85
2017-12-29T05:51:39.320Z,2.85
2017-12-29T05:52:19.892Z,2.86
2017-12-29T05:53:00.479Z,2.9
2017-12-29T05:53:41.035Z,2.92
2017-12-29T05:54:21.588Z,2.89
2017-12-29T05:55:02.155Z,2.89
2017-12-29T05:55:42.744Z,2.9
2017-12-29T05:56:23.312Z,2.85
2017-12-29T05:57:03.864Z,2.86
2017-12-29T05:57:44.424Z,2.86
2017-12-29T05:58:24.998Z,2.95
2017-12-29T05:59:05.594Z,2.85
2017-12-29T05:59:46.157Z,2.86
2017-12-29T06:00:26.757Z,2.87
2017-12-29T06:01:07.354Z,2.87
2017-12-29T06:01:47.921Z,2.82
2017-12-29T06:02:28.499Z,2.85
2017-12-29T06:03:09.056Z,2.83
2017-12-29T06:03:49.617Z,2.86
2017-12-29T06:04:30.190Z,2.86
2017-12-29T06:05:10.759Z,2.82
2017-12-29T06:05:51.330Z,2.92
2017-12-29T06:06:31.909Z,2.87
2017-12-29T06:07:12.472Z,2.93
2017-12-29T06:07:53.044Z,2.86
2017-12-29T06:08:33.605Z,2.89
2017-12-29T06:09:14.156Z,2.83
2017-12-29T06:09:54.712Z,2.82
2017-12-29T06:10:35.268Z,2.87
2017-12-29T06:11:15.843Z,2.85
2017-12-29T06:11:56.412Z,2.86
2017-12-29T06:12:36.975Z,2.85
2017-12-29T06:13:17.549Z,2.93
2017-12-29T06:13:58.119Z,2.95
2017-12-29T06:14:38.714Z,3.01
2017-12-29T06:15:19.284Z,2.86
2017-12-29T06:15:59.859Z,2.97
2017-12-29T06:16:40.426Z,2.89
2017-12-29T06:17:20.991Z,2.92
2017-12-29T06:18:01.553Z,2.98
2017-12-29T06:18:42.130Z,3.07
2017-12-29T06:19:22.690Z,3.03
2017-12-29T06:20:03.252Z,3.03
2017-12-29T06:20:43.836Z,3
2017-12-29T06:21:24.412Z,2.95
2017-12-29T06:22:04.972Z,2.98
2017-12-29T06:22:45.577Z,2.95
2017-12-29T06:23:26.152Z,2.97
2017-12-29T06:24:06.735Z,2.97
2017-12-29T06:24:47.290Z,2.9
2017-12-29T06:25:27.854Z,2.97
2017-12-29T06:26:08.420Z,2.98
2017-12-29T06:26:49.007Z,2.97
2017-12-29T06:27:29.557Z,3.01
2017-12-29T06:28:10.135Z,3
2017-12-29T06:28:50.698Z,2.97
2017-12-29T06:29:31.269Z,3
2017-12-29T06:30:11.828Z,3.01
2017-12-29T06:30:52.388Z,2.95
2017-12-29T06:31:32.981Z,3.04
2017-12-29T06:32:13.540Z,2.97
2017-12-29T06:32:54.107Z,3.03
2017-12-29T06:33:34.671Z,3
2017-12-29T06:34:15.219Z,3.03
2017-12-29T06:34:55.831Z,3.05
2017-12-29T06:35:36.335Z,3.04
2017-12-29T06:36:16.907Z,2.98
2017-12-29T06:36:57.475Z,3.03
2017-12-29T06:37:38.035Z,3.03
2017-12-29T06:38:18.587Z,3.03
2017-12-29T06:38:59.155Z,3.01
2017-12-29T06:39:39.739Z,3.05
2017-12-29T06:40:20.304Z,3.11
2017-12-29T06:41:00.866Z,3.05
2017-12-29T06:41:41.438Z,3.1
2017-12-29T06:42:21.997Z,3.08
2017-12-29T06:43:02.553Z,3.03
2017-12-29T06:43:43.120Z,3.1
2017-12-29T06:44:23.706Z,3.07
2017-12-29T06:45:04.284Z,3.05
2017-12-29T06:45:44.846Z,3.05
2017-12-29T06:46:25.407Z,3.1
2017-12-29T06:47:05.966Z,3.05
2017-12-29T06:47:46.531Z,3.1
2017-12-29T06:48:27.086Z,3.11
2017-12-29T06:49:07.647Z,3.04
2017-12-29T06:49:48.219Z,3.07
2017-12-29T06:50:28.784Z,3.07
2017-12-29T06:51:09.360Z,3.04
2017-12-29T06:51:49.919Z,3.14
2017-12-29T06:52:30.480Z,3.05
2017-12-29T06:53:11.037Z,3.11
2017-12-29T06:53:51.614Z,3.1
2017-12-29T06:54:32.176Z,3.04
2017-12-29T06:55:12.738Z,3.08
2017-12-29T06:55:53.299Z,3.08
2017-12-29T06:56:33.872Z,3.1
2017-12-29T06:57:14.426Z,3.08
2017-12-29T06:57:54.978Z,3.08
2017-12-29T06:58:35.538Z,3.08
2017-12-29T06:59:16.096Z,3.05
2017-12-29T06:59:57.031Z,3.05
2017-12-29T07:00:38.525Z,3.08
2017-12-29T07:01:27.884Z,3.14
2017-12-29T07:02:08.885Z,3.1
2017-12-29T07:02:49.473Z,3.07
2017-12-29T07:03:30.045Z,3.04
2017-12-29T07:04:10.592Z,3.1
2017-12-29T07:04:51.158Z,3.05
2017-12-29T07:05:31.823Z,3.13
2017-12-29T07:06:12.448Z,3.07
2017-12-29T07:06:53.275Z,3.11
2017-12-29T07:07:34.071Z,3.14
2017-12-29T07:08:14.905Z,3.05
2017-12-29T07:08:55.532Z,3.05
2017-12-29T07:09:36.099Z,3.07
2017-12-29T07:10:16.658Z,3.07
2017-12-29T07:10:57.233Z,3.05
2017-12-29T07:11:37.803Z,3.13
2017-12-29T07:12:18.394Z,3.04
2017-12-29T07:12:59.507Z,3.01
2017-12-29T07:13:40.176Z,3.05
2017-12-29T07:14:20.736Z,3.11
2017-12-29T07:15:01.424Z,3.1
2017-12-29T07:15:42.034Z,3.05
2017-12-29T07:16:22.874Z,3.13
2017-12-29T07:17:03.515Z,3.07
2017-12-29T07:17:44.470Z,3.07
2017-12-29T07:18:25.035Z,3.04
2017-12-29T07:19:06.191Z,3.21
2017-12-29T07:19:46.858Z,3.11
2017-12-29T07:20:28.082Z,3.1
2017-12-29T07:21:08.634Z,3.21
2017-12-29T07:21:49.204Z,3.21
2017-12-29T07:22:30.130Z,3.14
2017-12-29T07:23:10.668Z,3.21
2017-12-29T07:23:51.536Z,3.16
2017-12-29T07:24:32.816Z,3.19
2017-12-29T07:25:13.551Z,3.26
2017-12-29T07:25:54.166Z,3.16
2017-12-29T07:26:35.356Z,3.22
2017-12-29T07:27:16.288Z,3.23
2017-12-29T07:27:57.066Z,3.21
2017-12-29T07:28:37.639Z,3.29
2017-12-29T07:29:18.278Z,3.31
2017-12-29T07:29:59.216Z,3.29
2017-12-29T07:30:39.768Z,3.21
2017-12-29T07:31:20.453Z,3.22
2017-12-29T07:32:01.652Z,3.23
2017-12-29T07:32:42.603Z,3.26
2017-12-29T07:33:23.164Z,3.31
2017-12-29T07:34:03.830Z,3.22
2017-12-29T07:34:44.392Z,3.37
2017-12-29T07:35:25.182Z,3.34
2017-12-29T07:36:05.856Z,3.26
2017-12-29T07:36:46.948Z,3.29
2017-12-29T07:37:27.481Z,3.34
2017-12-29T07:38:08.501Z,3.23
2017-12-29T07:38:49.537Z,3.28
2017-12-29T07:39:30.370Z,3.31
2017-12-29T07:40:12.070Z,3.26
2017-12-29T07:40:52.935Z,3.29
2017-12-29T07:41:33.980Z,3.36
2017-12-29T07:42:14.546Z,3.26
2017-12-29T07:42:55.112Z,3.36
2017-12-29T07:43:35.852Z,3.31
2017-12-29T07:44:16.690Z,3.36
2017-12-29T07:44:57.821Z,3.4
2017-12-29T07:45:38.750Z,3.41
2017-12-29T07:46:19.596Z,3.34
2017-12-29T07:47:00.555Z,3.36
2017-12-29T07:47:41.466Z,3.34
2017-12-29T07:48:22.183Z,3.37
2017-12-29T07:49:02.847Z,3.34
2017-12-29T07:49:43.510Z,3.32
2017-12-29T07:50:24.162Z,3.42
2017-12-29T07:51:04.929Z,3.34
2017-12-29T07:51:45.499Z,3.29
2017-12-29T07:52:26.237Z,3.36
2017-12-29T07:53:06.941Z,3.31
2017-12-29T07:53:47.657Z,3.26
2017-12-29T07:54:28.327Z,3.26
2017-12-29T07:55:09.223Z,3.22
2017-12-29T07:55:49.909Z,3.29
2017-12-29T07:56:30.638Z,3.37
2017-12-29T07:57:11.542Z,3.36
2017-12-29T07:57:52.309Z,3.32
2017-12-29T07:58:32.967Z,3.34
2017-12-29T07:59:13.554Z,3.31
2017-12-29T07:59:54.198Z,3.28
2017-12-29T08:00:34.836Z,3.26
2017-12-29T08:01:15.405Z,3.26
2017-12-29T08:01:55.996Z,3.23
2017-12-29T08:02:36.571Z,3.23
2017-12-29T08:03:20.372Z,3.28
2017-12-29T08:04:01.096Z,3.31
2017-12-29T08:04:42.301Z,3.32
2017-12-29T08:05:23.191Z,3.37
2017-12-29T08:06:03.849Z,3.29
2017-12-29T08:06:44.473Z,3.29
2017-12-29T08:07:25.057Z,3.31
2017-12-29T08:08:05.704Z,3.41
2017-12-29T08:08:46.344Z,3.42
2017-12-29T08:09:26.936Z,3.36
2017-12-29T08:10:07.503Z,3.41
2017-12-29T08:10:48.063Z,3.37
2017-12-29T08:11:28.666Z,3.37
2017-12-29T08:12:09.286Z,3.34
2017-12-29T08:12:49.910Z,3.4
2017-12-29T08:13:30.490Z,3.41
2017-12-29T08:14:11.075Z,3.4
2017-12-29T08:14:51.744Z,3.4
2017-12-29T08:15:32.348Z,3.36
2017-12-29T08:16:12.915Z,3.36
2017-12-29T08:16:53.478Z,3.34
2017-12-29T08:17:34.048Z,3.34
2017-12-29T08:18:14.618Z,3.31
2017-12-29T08:18:55.189Z,3.32
2017-12-29T08:19:35.742Z,3.31
2017-12-29T08:20:16.309Z,3.29
2017-12-29T08:20:56.897Z,3.41
2017-12-29T08:21:37.452Z,3.41
2017-12-29T08:22:18.020Z,3.37
2017-12-29T08:22:58.589Z,3.41
2017-12-29T08:23:39.168Z,3.37
2017-12-29T08:24:19.758Z,3.4
2017-12-29T08:25:00.636Z,3.42
2017-12-29T08:25:41.441Z,3.4
2017-12-29T08:26:22.013Z,3.41
2017-12-29T08:27:02.603Z,3.44
2017-12-29T08:27:43.312Z,3.48
2017-12-29T08:28:24.080Z,3.45
2017-12-29T08:29:04.665Z,3.4
2017-12-29T08:29:45.313Z,3.5
2017-12-29T08:30:25.877Z,3.47
2017-12-29T08:31:06.546Z,3.47
2017-12-29T08:31:47.109Z,3.45
2017-12-29T08:32:27.691Z,3.58
2017-12-29T08:33:08.277Z,3.48
2017-12-29T08:33:48.847Z,3.47
2017-12-29T08:34:29.406Z,3.55
2017-12-29T08:35:10.065Z,3.51
2017-12-29T08:35:50.668Z,3.47
2017-12-29T08:36:31.263Z,3.51
2017-12-29T08:37:11.839Z,3.45
2017-12-29T08:37:52.412Z,3.45
2017-12-29T08:38:33.014Z,3.45
2017-12-29T08:39:13.616Z,3.42
2017-12-29T08:39:54.218Z,3.45
2017-12-29T08:40:34.805Z,3.48
2017-12-29T08:41:15.373Z,3.51
2017-12-29T08:41:56.179Z,3.53
2017-12-29T08:42:36.730Z,3.48
2017-12-29T08:43:17.373Z,3.51
2017-12-29T08:43:57.949Z,3.45
2017-12-29T08:44:38.585Z,3.56
2017-12-29T08:45:19.439Z,3.53
2017-12-29T08:46:00.034Z,3.59
2017-12-29T08:46:40.603Z,3.5
2017-12-29T08:47:21.301Z,3.59
2017-12-29T08:48:01.860Z,3.55
2017-12-29T08:48:42.435Z,3.6
2017-12-29T08:49:23.003Z,3.58
2017-12-29T08:50:03.596Z,3.55
2017-12-29T08:50:44.538Z,3.65
2017-12-29T08:51:25.118Z,3.66
2017-12-29T08:52:06.045Z,3.56
2017-12-29T08:52:46.616Z,3.51
2017-12-29T08:53:27.176Z,3.66
2017-12-29T08:54:07.740Z,3.55
2017-12-29T08:54:48.320Z,3.51
2017-12-29T08:55:28.914Z,3.62
2017-12-29T08:56:09.484Z,3.58
2017-12-29T08:56:50.054Z,3.56
2017-12-29T08:57:30.651Z,3.53
2017-12-29T08:58:11.222Z,3.6
2017-12-29T08:58:52.097Z,3.63
2017-12-29T08:59:32.697Z,3.56
2017-12-29T09:00:13.269Z,3.62
2017-12-29T09:00:53.846Z,3.53
2017-12-29T09:01:34.416Z,3.59
2017-12-29T09:02:15.221Z,3.62
2017-12-29T09:02:55.945Z,3.6